Time;durP1;ratioP1;P1;durP2;ratioP2;P2;SDS_P1;SDS_P2;PMS_P1;PMS_P2;Temp;Humidity;BMP_temperature;BMP_pressure;BME280_temperature;BME280_humidity;BME280_pressure;Samples;Min_cycle;Max_cycle;Signal;HPM_P1;HPM_P2
2022/07/30 00:01:40;;;;;;;10.90;8.60;;;14.50;99.90;;;;;;5005545;28;20130;-67
2022/07/30 00:04:12;;;;;;;11.93;8.88;;;14.50;99.90;;;;;;5009766;28;20054;-67
2022/07/30 00:06:38;;;;;;;11.85;9.20;;;14.40;99.90;;;;;;4996311;28;20377;-68
2022/07/30 00:09:04;;;;;;;11.02;9.02;;;14.40;99.90;;;;;;5010478;28;20046;-67
2022/07/30 00:11:30;;;;;;;14.00;10.27;;;14.50;99.90;;;;;;5010042;28;20045;-69
2022/07/30 00:13:56;;;;;;;14.40;11.48;;;14.50;99.90;;;;;;5010060;28;20046;-67
2022/07/30 00:16:23;;;;;;;11.98;10.75;;;14.50;99.90;;;;;;5010563;28;20077;-67
2022/07/30 00:18:48;;;;;;;6.93;6.20;;;14.40;99.90;;;;;;5008964;28;20133;-67
2022/07/30 00:21:14;;;;;;;6.20;5.00;;;14.40;99.90;;;;;;5011619;28;20141;-67
2022/07/30 00:23:40;;;;;;;7.53;6.45;;;14.40;99.90;;;;;;4993813;28;20139;-67
2022/07/30 00:26:06;;;;;;;11.63;8.32;;;14.40;99.90;;;;;;5010390;28;20045;-67
2022/07/30 00:28:32;;;;;;;7.35;6.07;;;14.40;99.90;;;;;;5009684;28;21632;-67
2022/07/30 00:30:58;;;;;;;9.88;7.32;;;14.40;99.90;;;;;;4994998;28;20052;-67
2022/07/30 00:33:24;;;;;;;11.88;8.57;;;14.40;99.90;;;;;;5011645;28;20483;-67
2022/07/30 00:35:49;;;;;;;12.60;9.02;;;14.40;99.90;;;;;;5002079;28;20076;-68
2022/07/30 00:38:15;;;;;;;15.93;11.18;;;14.40;99.90;;;;;;5011238;28;20053;-69
2022/07/30 00:40:41;;;;;;;14.90;11.75;;;14.30;99.90;;;;;;5010081;28;20492;-66
2022/07/30 00:43:07;;;;;;;14.38;11.52;;;14.40;99.90;;;;;;5008554;28;20052;-67
2022/07/30 00:45:34;;;;;;;18.00;15.10;;;14.40;99.90;;;;;;5008098;28;20049;-67
2022/07/30 00:48:00;;;;;;;16.00;12.73;;;14.30;99.90;;;;;;5025944;28;20381;-67
2022/07/30 00:50:26;;;;;;;76.85;11.38;;;14.30;99.90;;;;;;5009189;28;20056;-69
2022/07/30 00:52:52;;;;;;;16.42;10.20;;;14.30;99.90;;;;;;5009927;28;20072;-67
2022/07/30 00:55:18;;;;;;;14.75;11.35;;;14.30;99.90;;;;;;5009491;28;20096;-66
2022/07/30 00:57:44;;;;;;;13.77;11.18;;;14.30;99.90;;;;;;5008227;28;20050;-67
2022/07/30 01:00:13;;;;;;;15.65;11.18;;;14.30;99.90;;;;;;5011114;28;20052;-67
2022/07/30 01:02:39;;;;;;;16.85;12.10;;;14.30;99.90;;;;;;5009863;28;20111;-68
2022/07/30 01:05:06;;;;;;;19.05;14.20;;;14.40;99.90;;;;;;5004203;28;20046;-67
2022/07/30 01:07:32;;;;;;;15.43;12.20;;;14.30;99.90;;;;;;5009195;28;20045;-69
2022/07/30 01:09:58;;;;;;;103.32;12.88;;;14.30;99.90;;;;;;4994316;28;20415;-67
2022/07/30 01:12:25;;;;;;;18.27;13.18;;;14.20;99.90;;;;;;5008175;28;20108;-69
2022/07/30 01:14:52;;;;;;;13.40;11.05;;;14.20;99.90;;;;;;4992396;28;20054;-68
2022/07/30 01:17:19;;;;;;;9.70;6.15;;;14.20;99.90;;;;;;5009705;28;20508;-67
2022/07/30 01:19:47;;;;;;;9.00;7.03;;;14.10;99.90;;;;;;5010444;28;20133;-67
2022/07/30 01:22:25;;;;;;;11.40;9.15;;;14.10;99.90;;;;;;5009722;28;20046;-67
2022/07/30 01:25:03;;;;;;;9.48;6.05;;;14.10;99.90;;;;;;5007467;28;20170;-68
2022/07/30 01:27:35;;;;;;;281.40;12.27;;;14.10;99.90;;;;;;5008569;28;20412;-67
2022/07/30 01:30:04;;;;;;;44.22;9.10;;;14.00;99.90;;;;;;5009059;28;20049;-68
2022/07/30 01:32:32;;;;;;;12.80;10.40;;;13.90;99.90;;;;;;5009817;28;20049;-68
2022/07/30 01:34:59;;;;;;;17.85;11.43;;;14.00;99.90;;;;;;5010284;28;20049;-68
2022/07/30 01:37:26;;;;;;;13.30;10.40;;;14.00;99.90;;;;;;5008293;28;20381;-67
2022/07/30 01:39:54;;;;;;;16.33;10.13;;;14.10;99.90;;;;;;5008099;28;20050;-67
2022/07/30 01:42:22;;;;;;;15.68;10.38;;;14.00;99.90;;;;;;4994082;28;20057;-67
2022/07/30 01:44:49;;;;;;;12.38;9.55;;;14.00;99.90;;;;;;4991677;28;20045;-67
2022/07/30 01:47:17;;;;;;;14.20;9.07;;;14.00;99.90;;;;;;5009798;28;20050;-67
2022/07/30 01:49:46;;;;;;;12.77;9.23;;;13.90;99.90;;;;;;5005233;28;20057;-68
2022/07/30 01:52:14;;;;;;;56.25;9.05;;;13.90;99.90;;;;;;5010622;28;20046;-67
2022/07/30 01:54:44;;;;;;;11.77;9.23;;;13.80;99.90;;;;;;5001384;28;20377;-67
2022/07/30 01:57:11;;;;;;;14.60;10.20;;;13.70;99.90;;;;;;5013992;28;20134;-67
2022/07/30 01:59:42;;;;;;;15.10;10.13;;;13.70;99.90;;;;;;5009151;28;20044;-67
2022/07/30 02:02:08;;;;;;;14.48;10.35;;;13.70;99.90;;;;;;5012989;28;20052;-69
2022/07/30 02:04:34;;;;;;;13.85;9.88;;;13.80;99.90;;;;;;4996631;28;20488;-67
2022/07/30 02:07:08;;;;;;;18.60;13.40;;;13.70;99.90;;;;;;5015278;28;20046;-67
2022/07/30 02:09:44;;;;;;;126.57;12.55;;;13.70;99.90;;;;;;5011036;28;20136;-68
2022/07/30 02:12:30;;;;;;;10.27;8.35;;;13.60;99.90;;;;;;5013885;28;20041;-67
2022/07/30 02:15:02;;;;;;;9.90;6.53;;;13.60;99.90;;;;;;4996469;28;20061;-67
2022/07/30 02:17:35;;;;;;;8.25;6.30;;;13.50;99.90;;;;;;5013154;28;20527;-67
2022/07/30 02:20:03;;;;;;;64.30;6.90;;;13.50;99.90;;;;;;5001677;28;20128;-67
2022/07/30 02:22:33;;;;;;;8.43;5.65;;;13.40;99.90;;;;;;4995049;28;20187;-67
2022/07/30 02:25:01;;;;;;;7.32;6.28;;;13.40;99.90;;;;;;4993217;28;20089;-68
2022/07/30 02:27:32;;;;;;;9.93;7.88;;;13.40;99.90;;;;;;5012962;28;20052;-68
2022/07/30 02:30:00;;;;;;;10.27;8.30;;;13.40;99.90;;;;;;5014977;28;20038;-67
2022/07/30 02:32:33;;;;;;;14.10;9.68;;;13.40;99.90;;;;;;4991409;28;20301;-69
2022/07/30 02:35:09;;;;;;;16.33;10.05;;;13.40;99.90;;;;;;5026462;28;20064;-67
2022/07/30 02:37:37;;;;;;;80.45;10.13;;;13.40;99.90;;;;;;4999685;28;20049;-67
2022/07/30 02:40:04;;;;;;;11.77;6.13;;;13.40;99.90;;;;;;5013703;28;20069;-67
2022/07/30 02:42:31;;;;;;;8.63;5.57;;;13.40;99.90;;;;;;5013155;28;20053;-68
2022/07/30 02:44:59;;;;;;;8.52;5.60;;;13.30;99.90;;;;;;5012489;28;20061;-68
2022/07/30 02:47:27;;;;;;;7.07;4.60;;;13.30;99.90;;;;;;5014536;28;20488;-67
2022/07/30 02:49:54;;;;;;;8.25;5.40;;;13.20;99.90;;;;;;5011836;28;20111;-68
2022/07/30 02:52:21;;;;;;;9.13;7.30;;;13.20;99.90;;;;;;5012891;28;20061;-67
2022/07/30 02:54:48;;;;;;;11.48;8.88;;;13.20;99.90;;;;;;5011928;28;20042;-68
2022/07/30 02:57:16;;;;;;;13.13;10.10;;;13.20;99.90;;;;;;5028959;28;20045;-68
2022/07/30 02:59:43;;;;;;;10.25;8.15;;;13.10;99.90;;;;;;4987657;28;20053;-67
2022/07/30 03:02:11;;;;;;;8.10;7.18;;;13.10;99.90;;;;;;5010470;28;20054;-70
2022/07/30 03:04:38;;;;;;;10.98;8.57;;;13.10;99.90;;;;;;4996694;28;20522;-67
2022/07/30 03:07:06;;;;;;;14.18;9.45;;;13.10;99.90;;;;;;5012903;28;20050;-67
2022/07/30 03:09:33;;;;;;;12.60;8.90;;;13.10;99.90;;;;;;5012413;28;20056;-67
2022/07/30 03:12:02;;;;;;;13.68;11.52;;;13.00;99.90;;;;;;4996464;28;20053;-67
2022/07/30 03:14:28;;;;;;;12.32;9.25;;;13.00;99.90;;;;;;5010499;28;20054;-67
2022/07/30 03:16:58;;;;;;;12.93;10.15;;;13.00;99.90;;;;;;5012746;28;20045;-68
2022/07/30 03:19:27;;;;;;;14.25;9.18;;;13.00;99.90;;;;;;5012100;28;20046;-67
2022/07/30 03:21:55;;;;;;;14.00;10.18;;;13.00;99.90;;;;;;4996033;28;20124;-69
2022/07/30 03:24:23;;;;;;;13.95;10.80;;;13.00;99.90;;;;;;5010092;28;20558;-68
2022/07/30 03:26:52;;;;;;;15.50;11.18;;;13.00;99.90;;;;;;5027120;28;20053;-67
2022/07/30 03:29:21;;;;;;;17.02;11.10;;;12.90;99.90;;;;;;4995385;28;20073;-68
2022/07/30 03:31:48;;;;;;;16.63;11.13;;;12.90;99.90;;;;;;5010246;28;20511;-69
2022/07/30 03:34:16;;;;;;;15.95;12.38;;;13.00;99.90;;;;;;5041128;28;20078;-67
2022/07/30 03:36:42;;;;;;;15.80;11.77;;;13.10;99.90;;;;;;5011703;28;20500;-67
2022/07/30 03:39:09;;;;;;;16.77;12.50;;;13.00;99.90;;;;;;5011319;28;20504;-67
2022/07/30 03:41:36;;;;;;;13.68;9.38;;;13.00;99.90;;;;;;4994604;28;20093;-71
2022/07/30 03:44:02;;;;;;;22.08;12.10;;;12.90;99.90;;;;;;4994549;28;20253;-70
2022/07/30 03:46:29;;;;;;;14.20;10.55;;;13.00;99.90;;;;;;5013877;28;20041;-67
2022/07/30 03:48:56;;;;;;;12.55;9.15;;;12.90;99.90;;;;;;5015839;28;20108;-67
2022/07/30 03:51:22;;;;;;;10.43;9.00;;;12.80;99.90;;;;;;5011835;28;20120;-67
2022/07/30 03:53:50;;;;;;;13.15;10.40;;;12.80;99.90;;;;;;5012228;28;20061;-67
2022/07/30 03:56:17;;;;;;;14.68;10.70;;;12.80;99.90;;;;;;5008663;28;20046;-71
2022/07/30 03:58:43;;;;;;;15.30;10.95;;;12.80;99.90;;;;;;5011469;28;20042;-67
2022/07/30 04:01:09;;;;;;;13.02;10.10;;;12.70;99.90;;;;;;5008580;28;20050;-67
2022/07/30 04:03:35;;;;;;;19.73;7.20;;;12.80;99.90;;;;;;4989435;28;20050;-67
2022/07/30 04:06:01;;;;;;;7.22;6.50;;;12.70;99.90;;;;;;4993870;28;20115;-67
2022/07/30 04:08:27;;;;;;;6.93;6.28;;;12.70;99.90;;;;;;5007660;28;20042;-69
2022/07/30 04:10:53;;;;;;;9.50;8.13;;;12.60;99.90;;;;;;5011383;28;20058;-68
2022/07/30 04:13:19;;;;;;;16.58;11.02;;;12.60;99.90;;;;;;4994740;28;20412;-67
2022/07/30 04:15:57;;;;;;;13.57;11.30;;;12.60;99.90;;;;;;5023835;28;20046;-70
2022/07/30 04:18:28;;;;;;;11.68;9.88;;;12.60;99.90;;;;;;5007965;28;20492;-67
2022/07/30 04:20:54;;;;;;;10.50;9.10;;;12.60;99.90;;;;;;5007575;28;20566;-67
2022/07/30 04:23:21;;;;;;;12.90;9.25;;;12.60;99.90;;;;;;5008234;28;20096;-68
2022/07/30 04:25:48;;;;;;;11.73;9.45;;;12.70;99.90;;;;;;4989940;28;20056;-67
2022/07/30 04:28:14;;;;;;;15.82;11.60;;;12.70;99.90;;;;;;4999370;28;20043;-67
2022/07/30 04:30:40;;;;;;;13.30;10.18;;;12.70;99.90;;;;;;4984711;28;20050;-67
2022/07/30 04:33:07;;;;;;;15.65;10.82;;;12.80;99.90;;;;;;4971099;28;20131;-68
2022/07/30 04:35:34;;;;;;;24.45;18.30;;;12.80;99.90;;;;;;4988895;28;20046;-67
2022/07/30 04:38:02;;;;;;;30.77;18.23;;;13.00;99.90;;;;;;4992046;28;20451;-67
2022/07/30 04:40:30;;;;;;;34.35;21.08;;;13.10;99.90;;;;;;5010997;28;20062;-68
2022/07/30 04:42:57;;;;;;;24.88;18.75;;;13.30;99.90;;;;;;5003979;28;20066;-68
2022/07/30 04:45:23;;;;;;;30.25;20.10;;;13.40;99.90;;;;;;5002765;28;20252;-68
2022/07/30 04:47:52;;;;;;;28.23;19.30;;;13.50;99.90;;;;;;5003761;28;20163;-69
2022/07/30 04:50:23;;;;;;;30.98;19.20;;;13.50;99.90;;;;;;5011636;28;20111;-68
2022/07/30 04:52:51;;;;;;;31.58;21.88;;;13.60;99.90;;;;;;4987689;28;20050;-70
2022/07/30 04:55:17;;;;;;;31.33;22.20;;;13.70;99.90;;;;;;5002962;28;20488;-68
2022/07/30 04:57:45;;;;;;;21.30;16.65;;;13.80;99.90;;;;;;5002313;28;20448;-68
2022/07/30 05:00:12;;;;;;;23.42;17.85;;;13.80;99.90;;;;;;5009115;28;20456;-67
2022/07/30 05:02:40;;;;;;;27.75;19.77;;;13.90;99.90;;;;;;5008289;28;20053;-67
2022/07/30 05:05:07;;;;;;;25.17;16.98;;;14.00;99.90;;;;;;5005694;28;20101;-67
2022/07/30 05:07:34;;;;;;;28.17;19.67;;;14.10;99.90;;;;;;5006535;28;20593;-67
2022/07/30 05:10:00;;;;;;;34.33;21.02;;;14.20;99.90;;;;;;5025187;28;20096;-69
2022/07/30 05:12:33;;;;;;;29.88;20.33;;;14.30;99.90;;;;;;5000323;28;20045;-69
2022/07/30 05:14:59;;;;;;;30.67;19.88;;;14.40;99.90;;;;;;5007416;28;20153;-67
2022/07/30 05:17:25;;;;;;;22.88;16.30;;;14.50;99.90;;;;;;5001956;28;20139;-67
2022/07/30 05:19:51;;;;;;;30.52;20.17;;;14.60;99.90;;;;;;4988292;28;20050;-67
2022/07/30 05:22:17;;;;;;;27.83;18.48;;;14.70;99.90;;;;;;5007592;28;20054;-68
2022/07/30 05:24:43;;;;;;;31.95;20.17;;;14.80;99.90;;;;;;4978594;28;20050;-67
2022/07/30 05:27:09;;;;;;;27.77;19.13;;;15.00;99.90;;;;;;5024816;28;20524;-67
2022/07/30 05:29:35;;;;;;;29.15;18.83;;;15.10;99.90;;;;;;5005735;28;20042;-67
2022/07/30 05:32:02;;;;;;;29.00;20.10;;;15.20;99.90;;;;;;5013729;28;20046;-69
2022/07/30 05:34:28;;;;;;;31.13;19.60;;;15.30;99.90;;;;;;5027509;28;20487;-68
2022/07/30 05:36:54;;;;;;;28.05;19.27;;;15.50;99.90;;;;;;5014022;28;20078;-67
2022/07/30 05:39:23;;;;;;;26.58;19.23;;;15.60;99.90;;;;;;5011163;28;20046;-67
2022/07/30 05:41:49;;;;;;;25.98;18.42;;;15.70;99.90;;;;;;4996736;28;20409;-68
2022/07/30 05:44:15;;;;;;;22.50;17.73;;;15.80;99.90;;;;;;5012754;28;20110;-68
2022/07/30 05:46:41;;;;;;;27.67;18.10;;;15.90;99.90;;;;;;4997606;28;20518;-68
2022/07/30 05:49:08;;;;;;;31.77;19.40;;;16.10;99.90;;;;;;4979094;28;20046;-68
2022/07/30 05:51:34;;;;;;;26.25;18.38;;;16.20;99.90;;;;;;5013790;28;20088;-67
2022/07/30 05:54:00;;;;;;;27.80;17.75;;;16.30;99.90;;;;;;5013049;28;20389;-67
2022/07/30 05:56:26;;;;;;;28.98;17.42;;;16.50;99.90;;;;;;5014278;28;20061;-68
2022/07/30 05:58:52;;;;;;;27.02;18.73;;;16.60;99.90;;;;;;5008022;28;20056;-70
2022/07/30 06:01:19;;;;;;;26.88;17.30;;;16.70;99.90;;;;;;5012922;28;20447;-69
2022/07/30 06:03:45;;;;;;;26.40;18.45;;;16.90;99.90;;;;;;5012454;28;20084;-69
2022/07/30 06:06:11;;;;;;;20.45;15.90;;;17.00;99.90;;;;;;5010635;28;20058;-68
2022/07/30 06:08:38;;;;;;;23.17;16.90;;;17.20;99.90;;;;;;4994484;28;20096;-68
2022/07/30 06:11:04;;;;;;;22.10;15.32;;;17.30;99.90;;;;;;4978890;28;20045;-69
2022/07/30 06:13:30;;;;;;;21.13;15.18;;;17.40;99.90;;;;;;5012358;28;20108;-70
2022/07/30 06:15:56;;;;;;;23.75;15.75;;;17.50;99.90;;;;;;5013896;28;20053;-67
2022/07/30 06:18:23;;;;;;;24.77;15.25;;;17.70;99.90;;;;;;5010544;28;20085;-68
2022/07/30 06:20:50;;;;;;;18.75;14.27;;;17.80;99.90;;;;;;5012092;28;20080;-69
2022/07/30 06:23:17;;;;;;;20.08;14.60;;;17.90;99.90;;;;;;5009618;28;20108;-72
2022/07/30 06:25:43;;;;;;;21.98;15.35;;;18.00;99.90;;;;;;5012287;28;20050;-69
2022/07/30 06:28:09;;;;;;;20.98;14.93;;;18.20;99.90;;;;;;5011417;28;20485;-68
2022/07/30 06:30:35;;;;;;;24.60;14.77;;;18.30;99.90;;;;;;5007932;28;20042;-69
2022/07/30 06:33:01;;;;;;;19.40;14.63;;;18.40;99.90;;;;;;5012267;28;20378;-71
2022/07/30 06:35:27;;;;;;;22.20;14.63;;;18.50;99.90;;;;;;5013583;28;20074;-69
2022/07/30 06:37:52;;;;;;;19.35;14.30;;;18.60;99.90;;;;;;4996068;28;20085;-69
2022/07/30 06:40:18;;;;;;;22.08;14.70;;;18.80;99.90;;;;;;5024567;28;20069;-70
2022/07/30 06:42:44;;;;;;;17.40;13.52;;;18.90;99.90;;;;;;4993480;28;20046;-68
2022/07/30 06:45:10;;;;;;;18.58;13.40;;;18.90;99.90;;;;;;5011412;28;20475;-68
2022/07/30 06:47:36;;;;;;;21.20;13.85;;;19.00;99.90;;;;;;5010290;28;20053;-68
2022/07/30 06:50:03;;;;;;;19.27;14.35;;;19.10;99.90;;;;;;4995440;28;20495;-69
2022/07/30 06:52:29;;;;;;;19.55;15.00;;;19.20;99.90;;;;;;4995851;28;20057;-69
2022/07/30 06:54:55;;;;;;;21.15;16.27;;;19.40;99.90;;;;;;5008884;28;20046;-68
2022/07/30 06:57:21;;;;;;;20.95;15.90;;;19.50;99.90;;;;;;5008288;28;20045;-68
2022/07/30 06:59:47;;;;;;;20.48;16.00;;;19.60;99.90;;;;;;5025820;28;20056;-69
2022/07/30 07:02:13;;;;;;;24.90;16.95;;;19.70;99.90;;;;;;5012059;28;20046;-67
2022/07/30 07:04:38;;;;;;;22.27;14.10;;;19.80;99.90;;;;;;5011747;28;20074;-68
2022/07/30 07:07:04;;;;;;;21.85;15.10;;;20.00;99.90;;;;;;5010308;28;20131;-69
2022/07/30 07:09:30;;;;;;;20.35;14.00;;;20.00;99.90;;;;;;5011093;28;20065;-69
2022/07/30 07:11:56;;;;;;;15.35;11.25;;;20.20;99.90;;;;;;5010558;28;20443;-69
2022/07/30 07:14:22;;;;;;;17.20;11.68;;;20.30;99.90;;;;;;5010038;28;20049;-68
2022/07/30 07:16:48;;;;;;;16.13;10.90;;;20.40;99.90;;;;;;5011403;28;20104;-70
2022/07/30 07:19:15;;;;;;;14.00;9.77;;;20.50;99.90;;;;;;5001671;28;20492;-70
2022/07/30 07:21:41;;;;;;;18.20;11.70;;;20.60;99.90;;;;;;5011437;28;20049;-68
2022/07/30 07:24:07;;;;;;;15.38;11.55;;;20.60;99.90;;;;;;5008604;28;20053;-68
2022/07/30 07:26:34;;;;;;;17.33;11.45;;;20.70;99.90;;;;;;5016886;28;20049;-68
2022/07/30 07:29:00;;;;;;;19.98;10.82;;;20.70;99.90;;;;;;5011258;28;20519;-69
2022/07/30 07:31:26;;;;;;;16.63;10.77;;;20.80;99.90;;;;;;4995247;28;20046;-70
2022/07/30 07:33:55;;;;;;;15.30;11.55;;;20.90;99.90;;;;;;5010144;28;20058;-69
2022/07/30 07:36:22;;;;;;;17.63;10.95;;;20.90;99.90;;;;;;5041522;28;20064;-68
2022/07/30 07:38:48;;;;;;;18.67;12.23;;;20.90;99.90;;;;;;4994725;28;20112;-68
2022/07/30 07:41:15;;;;;;;16.50;12.52;;;21.00;99.90;;;;;;4966398;28;1308198;-69
2022/07/30 07:43:41;;;;;;;18.00;12.52;;;21.10;99.90;;;;;;5011407;28;20403;-70
2022/07/30 07:46:07;;;;;;;18.55;12.75;;;21.20;99.90;;;;;;5033816;28;20049;-68
2022/07/30 07:48:33;;;;;;;17.95;12.38;;;21.20;99.90;;;;;;5010019;28;20381;-68
2022/07/30 07:50:59;;;;;;;19.27;14.05;;;21.30;99.90;;;;;;5006323;28;20495;-68
2022/07/30 07:53:25;;;;;;;19.02;12.88;;;21.30;99.90;;;;;;4994455;28;20045;-69
2022/07/30 07:55:51;;;;;;;14.98;12.80;;;21.40;99.90;;;;;;5011177;28;20571;-70
2022/07/30 07:58:17;;;;;;;18.15;13.63;;;21.40;99.90;;;;;;5007640;28;20124;-69
2022/07/30 08:00:43;;;;;;;16.25;12.48;;;21.50;99.90;;;;;;5010351;28;20073;-68
2022/07/30 08:03:09;;;;;;;18.02;12.18;;;21.60;99.90;;;;;;4994747;28;20085;-68
2022/07/30 08:05:35;;;;;;;16.27;11.73;;;21.60;99.90;;;;;;4977578;28;20073;-68
2022/07/30 08:08:01;;;;;;;16.58;11.57;;;21.80;99.90;;;;;;5009809;28;20050;-69
2022/07/30 08:10:27;;;;;;;17.25;12.30;;;21.90;99.90;;;;;;5009812;28;20049;-69
2022/07/30 08:12:53;;;;;;;17.55;11.15;;;22.00;99.90;;;;;;5011759;28;20049;-69
2022/07/30 08:15:20;;;;;;;14.80;9.63;;;22.10;99.90;;;;;;4995340;28;20042;-69
2022/07/30 08:17:46;;;;;;;12.52;9.63;;;22.10;99.90;;;;;;5011250;28;20097;-69
2022/07/30 08:20:14;;;;;;;13.15;10.18;;;22.20;99.90;;;;;;5009240;28;20045;-70
2022/07/30 08:22:40;;;;;;;14.98;9.75;;;22.30;99.90;;;;;;5036698;28;20069;-71
2022/07/30 08:25:07;;;;;;;13.13;10.00;;;22.40;99.90;;;;;;5010432;28;20081;-69
2022/07/30 08:27:33;;;;;;;14.20;9.88;;;22.40;99.90;;;;;;5007743;28;20064;-69
2022/07/30 08:30:03;;;;;;;14.77;10.25;;;22.50;99.90;;;;;;5008011;28;20480;-68
2022/07/30 08:32:29;;;;;;;15.25;9.82;;;22.50;99.90;;;;;;5036616;28;20057;-70
2022/07/30 08:34:55;;;;;;;12.52;10.82;;;22.60;99.90;;;;;;5014449;28;20095;-69
2022/07/30 08:37:21;;;;;;;13.23;10.60;;;22.70;99.90;;;;;;5008249;28;20068;-69
2022/07/30 08:39:47;;;;;;;14.60;9.68;;;22.80;99.90;;;;;;5008165;28;20093;-70
2022/07/30 08:42:14;;;;;;;13.38;9.02;;;22.80;99.90;;;;;;5011676;28;20484;-69
2022/07/30 08:44:43;;;;;;;14.02;7.35;;;22.90;99.90;;;;;;5022729;28;20507;-74
2022/07/30 08:47:10;;;;;;;13.63;7.75;;;22.90;99.90;;;;;;4994274;28;20052;-73
2022/07/30 08:49:36;;;;;;;12.25;7.50;;;23.00;99.90;;;;;;5018378;28;20084;-73
2022/07/30 08:52:03;;;;;;;10.85;7.40;;;23.10;99.90;;;;;;5011083;28;20539;-72
2022/07/30 08:54:30;;;;;;;12.95;7.63;;;23.20;99.90;;;;;;5010010;28;20542;-72
2022/07/30 08:56:57;;;;;;;15.02;7.38;;;23.10;99.90;;;;;;5010673;28;20075;-73
2022/07/30 08:59:24;;;;;;;12.70;7.55;;;23.20;99.90;;;;;;5005589;28;20060;-72
2022/07/30 09:01:50;;;;;;;14.98;7.72;;;23.20;99.90;;;;;;5018301;28;20081;-72
2022/07/30 09:04:17;;;;;;;9.20;7.18;;;23.20;99.90;;;;;;4994656;28;20042;-75
2022/07/30 09:06:44;;;;;;;11.55;7.45;;;23.50;99.90;;;;;;5011091;28;20085;-73
2022/07/30 09:09:10;;;;;;;11.35;7.47;;;23.50;99.90;;;;;;4993880;28;20065;-74
2022/07/30 09:11:36;;;;;;;10.73;7.57;;;23.70;99.90;;;;;;5012990;28;20113;-73
2022/07/30 09:14:11;;;;;;;13.10;8.20;;;23.60;99.90;;;;;;5010903;28;20057;-73
2022/07/30 09:16:38;;;;;;;12.52;8.00;;;23.80;99.90;;;;;;5009931;28;20046;-75
2022/07/30 09:19:20;;;;;;;12.73;7.80;;;24.10;99.90;;;;;;4993702;28;20400;-72
2022/07/30 09:22:00;;;;;;;13.13;7.97;;;24.00;99.90;;;;;;5015388;28;20050;-75
2022/07/30 09:24:27;;;;;;;11.02;8.15;;;24.00;99.90;;;;;;4990434;28;20051;-71
2022/07/30 09:26:58;;;;;;;12.32;7.78;;;23.80;99.90;;;;;;5006920;28;20046;-72
2022/07/30 09:29:27;;;;;;;11.77;6.30;;;24.10;99.90;;;;;;5010740;28;20061;-72
2022/07/30 09:31:55;;;;;;;11.43;7.15;;;24.40;99.90;;;;;;4992636;28;20136;-72
2022/07/30 09:34:25;;;;;;;12.10;7.05;;;24.10;99.90;;;;;;5022440;28;20053;-72
2022/07/30 09:36:51;;;;;;;14.35;7.55;;;24.00;99.90;;;;;;5010682;28;20416;-71
2022/07/30 09:39:35;;;;;;;11.65;7.13;;;23.80;99.90;;;;;;5010665;28;20046;-71
2022/07/30 09:42:04;;;;;;;14.35;7.28;;;24.00;99.90;;;;;;5010372;28;20054;-72
2022/07/30 09:44:30;;;;;;;9.65;7.43;;;24.30;99.90;;;;;;5008713;28;20452;-71
2022/07/30 09:46:57;;;;;;;7.88;6.60;;;24.60;99.90;;;;;;4997702;28;20128;-72
2022/07/30 09:49:27;;;;;;;12.27;7.07;;;24.30;99.90;;;;;;4994173;28;20092;-72
2022/07/30 09:51:55;;;;;;;9.63;6.72;;;24.00;99.90;;;;;;5010551;28;20046;-71
2022/07/30 09:54:21;;;;;;;7.57;6.13;;;24.00;99.90;;;;;;4994134;28;20049;-72
2022/07/30 09:57:04;;;;;;;11.65;7.07;;;24.20;99.90;;;;;;5009152;28;20063;-72
2022/07/30 09:59:31;;;;;;;11.73;6.40;;;24.30;99.90;;;;;;5044061;28;20094;-71
2022/07/30 10:01:58;;;;;;;9.60;6.38;;;24.60;99.90;;;;;;5012390;28;20053;-73
2022/07/30 10:04:26;;;;;;;9.82;6.30;;;24.90;99.90;;;;;;5015622;28;20495;-73
2022/07/30 10:06:52;;;;;;;10.20;5.88;;;25.10;99.90;;;;;;4993416;28;20461;-73
2022/07/30 10:09:33;;;;;;;10.45;6.18;;;25.20;99.90;;;;;;5008093;28;20531;-72
2022/07/30 10:12:04;;;;;;;9.63;5.68;;;25.60;99.90;;;;;;5010932;28;20053;-73
2022/07/30 10:14:35;;;;;;;8.75;5.57;;;25.70;99.90;;;;;;5005327;28;20057;-73
2022/07/30 10:17:02;;;;;;;10.68;5.82;;;25.70;99.90;;;;;;5010804;28;20510;-72
2022/07/30 10:19:30;;;;;;;11.55;5.55;;;26.00;99.90;;;;;;5014390;28;20053;-74
2022/07/30 10:21:57;;;;;;;9.25;5.72;;;25.70;99.90;;;;;;5007750;28;20046;-72
2022/07/30 10:24:24;;;;;;;8.85;5.80;;;25.60;99.90;;;;;;5018533;28;20061;-74
2022/07/30 10:26:52;;;;;;;13.50;5.68;;;25.70;99.90;;;;;;5020951;28;20073;-73
2022/07/30 10:29:18;;;;;;;6.85;4.60;;;25.80;99.90;;;;;;5020995;28;20056;-74
2022/07/30 10:31:49;;;;;;;6.50;5.78;;;25.90;99.90;;;;;;5007032;28;20144;-73
2022/07/30 10:34:16;;;;;;;6.65;5.20;;;26.20;99.90;;;;;;4994099;28;20054;-74
2022/07/30 10:36:46;;;;;;;10.02;5.22;;;26.50;99.90;;;;;;5046024;28;20430;-74
2022/07/30 10:39:17;;;;;;;9.73;5.60;;;26.60;98.60;;;;;;4997148;28;20050;-73
2022/07/30 10:41:43;;;;;;;;;;;26.60;98.10;;;;;;5009749;28;20053;-73
2022/07/30 10:44:42;;;;;;;7.80;4.57;;;26.60;95.60;;;;;;4995152;28;19976;-72
2022/07/30 10:47:13;;;;;;;6.88;4.63;;;26.70;96.70;;;;;;5011686;28;20060;-72
2022/07/30 10:49:40;;;;;;;7.18;4.63;;;26.70;95.00;;;;;;4996414;28;20116;-74
2022/07/30 10:52:06;;;;;;;10.18;4.43;;;26.70;96.00;;;;;;5011918;28;20172;-72
2022/07/30 10:54:39;;;;;;;7.13;4.68;;;26.70;95.20;;;;;;5009009;28;20421;-73
2022/07/30 10:57:17;;;;;;;7.35;4.30;;;26.40;93.60;;;;;;5009605;28;20068;-73
2022/07/30 10:59:56;;;;;;;7.85;4.45;;;26.30;93.30;;;;;;4997100;28;20046;-73
2022/07/30 11:02:24;;;;;;;7.68;4.50;;;26.30;93.30;;;;;;5026494;28;20134;-73
2022/07/30 11:05:10;;;;;;;9.82;4.65;;;26.60;94.30;;;;;;5013063;28;20508;-74
2022/07/30 11:07:35;;;;;;;8.18;4.47;;;26.80;93.60;;;;;;4997658;28;20046;-71
2022/07/30 11:10:01;;;;;;;7.57;4.10;;;26.70;93.20;;;;;;5008962;28;20054;-72
2022/07/30 11:12:44;;;;;;;9.88;4.35;;;26.70;92.70;;;;;;4995741;28;20054;-74
2022/07/30 11:15:12;;;;;;;8.63;4.45;;;26.80;91.50;;;;;;4996566;28;20137;-74
2022/07/30 11:17:59;;;;;;;22.80;5.07;;;26.80;92.00;;;;;;5012479;28;20103;-72
2022/07/30 11:20:29;;;;;;;9.82;4.30;;;26.70;85.40;;;;;;5010199;28;20492;-73
2022/07/30 11:23:27;;;;;;;7.30;4.37;;;26.80;90.10;;;;;;4989807;28;20053;-73
2022/07/30 11:25:53;;;;;;;5.90;4.03;;;26.40;85.00;;;;;;5011567;28;20050;-73
2022/07/30 11:28:39;;;;;;;6.82;3.70;;;26.50;90.10;;;;;;5011380;28;20515;-73
2022/07/30 11:31:32;;;;;;;6.15;4.20;;;26.60;87.20;;;;;;5012659;28;20042;-73
2022/07/30 11:34:16;;;;;;;6.25;4.43;;;26.60;84.10;;;;;;5016229;28;20045;-75
2022/07/30 11:37:02;;;;;;;8.70;4.30;;;26.40;82.90;;;;;;4993909;28;20052;-73
2022/07/30 11:39:53;;;;;;;7.82;3.83;;;26.50;86.10;;;;;;5011603;28;20054;-72
2022/07/30 11:42:30;;;;;;;5.80;3.80;;;26.90;86.60;;;;;;5012327;28;20115;-72
2022/07/30 11:45:21;;;;;;;5.80;3.65;;;27.10;86.70;;;;;;5013500;28;20056;-73
2022/07/30 11:47:50;;;;;;;4.50;3.97;;;27.60;83.40;;;;;;5003861;28;20477;-73
2022/07/30 11:50:28;;;;;;;7.78;3.95;;;27.60;84.10;;;;;;5028646;28;20412;-74
2022/07/30 11:52:57;;;;;;;6.07;4.03;;;27.80;82.30;;;;;;5011822;28;20050;-72
2022/07/30 11:55:29;;;;;;;5.00;3.95;;;27.80;82.40;;;;;;5027943;28;20042;-72
2022/07/30 11:57:56;;;;;;;7.93;3.80;;;27.50;82.60;;;;;;5008998;28;20049;-72
2022/07/30 12:00:23;;;;;;;8.18;3.78;;;27.40;83.10;;;;;;5009055;28;20247;-72
2022/07/30 12:02:49;;;;;;;7.55;3.85;;;27.80;82.40;;;;;;4990188;28;20043;-72
2022/07/30 12:05:24;;;;;;;7.53;3.58;;;27.80;82.40;;;;;;5009096;28;20054;-77
2022/07/30 12:07:50;;;;;;;5.65;3.58;;;27.80;80.60;;;;;;5008715;28;20083;-78
2022/07/30 12:10:18;;;;;;;8.07;4.03;;;28.00;80.80;;;;;;5010267;28;20515;-78
2022/07/30 12:12:45;;;;;;;5.82;3.00;;;27.90;79.10;;;;;;5007273;28;20064;-77
2022/07/30 12:15:29;;;;;;;9.52;3.58;;;27.60;77.50;;;;;;5017053;28;20126;-80
2022/07/30 12:17:55;;;;;;;7.45;3.95;;;27.20;76.30;;;;;;4997323;28;20733;-73
2022/07/30 12:20:21;;;;;;;5.82;3.47;;;27.20;79.00;;;;;;5017115;28;20064;-71
2022/07/30 12:22:47;;;;;;;6.13;3.50;;;26.90;79.10;;;;;;5024547;28;20046;-77
2022/07/30 12:25:13;;;;;;;6.60;3.40;;;27.20;80.50;;;;;;5010150;28;20518;-72
2022/07/30 12:27:43;;;;;;;7.97;4.15;;;27.30;80.50;;;;;;5039635;28;20058;-73
2022/07/30 12:30:10;;;;;;;6.40;3.50;;;27.80;78.40;;;;;;5008679;28;20064;-72
2022/07/30 12:32:36;;;;;;;5.85;3.42;;;28.10;80.10;;;;;;5016683;28;20814;-72
2022/07/30 12:35:03;;;;;;;6.30;3.20;;;28.40;78.50;;;;;;5024555;28;20120;-72
2022/07/30 12:37:29;;;;;;;5.75;3.40;;;28.20;76.10;;;;;;5010505;28;20050;-73
2022/07/30 12:40:10;;;;;;;4.90;2.92;;;28.00;74.40;;;;;;5010144;28;20069;-73
2022/07/30 12:42:48;;;;;;;3.97;3.40;;;28.10;72.00;;;;;;5001943;28;20061;-73